createdAt,value
2018-09-29T00:00:22.559Z,99101.00
2018-09-29T00:04:24.834Z,99099.00
2018-09-29T00:08:27.128Z,99106.00
2018-09-29T00:12:29.363Z,99096.00
2018-09-29T00:16:31.760Z,99099.00
2018-09-29T00:20:34.013Z,99092.00
2018-09-29T00:24:36.243Z,99103.00
2018-09-29T00:28:38.526Z,99093.00
2018-09-29T00:32:40.781Z,99085.00
2018-09-29T00:36:43.027Z,99091.00
2018-09-29T00:40:45.401Z,99101.00
2018-09-29T00:44:47.685Z,99097.00
2018-09-29T00:48:50.012Z,99092.00
2018-09-29T00:52:52.343Z,99095.00
2018-09-29T00:56:54.628Z,99092.00
2018-09-29T01:00:57.088Z,99092.00
2018-09-29T01:04:59.361Z,99089.00
2018-09-29T01:09:01.751Z,99098.00
2018-09-29T01:13:04.078Z,99096.00
2018-09-29T01:17:06.476Z,99091.00
2018-09-29T01:21:09.812Z,99100.00
2018-09-29T01:25:12.117Z,99108.00
2018-09-29T01:29:14.372Z,99111.00
2018-09-29T01:33:16.632Z,99105.00
2018-09-29T01:37:18.915Z,99097.00
2018-09-29T01:41:21.186Z,99092.00
2018-09-29T01:45:23.508Z,99091.00
2018-09-29T01:49:25.769Z,99087.00
2018-09-29T01:53:28.034Z,99076.00
2018-09-29T01:57:30.313Z,99088.00
2018-09-29T02:01:32.600Z,99079.00
2018-09-29T02:05:34.921Z,99077.00
2018-09-29T02:09:37.197Z,99071.00
2018-09-29T02:13:39.437Z,99071.00
2018-09-29T02:17:41.728Z,99071.00
2018-09-29T02:21:44.034Z,99080.00
2018-09-29T02:25:46.286Z,99069.00
2018-09-29T02:29:48.576Z,99068.00
2018-09-29T02:33:50.859Z,99072.00
2018-09-29T02:37:53.191Z,99073.00
2018-09-29T02:41:55.487Z,99063.00
2018-09-29T02:45:57.835Z,99067.00
2018-09-29T02:50:00.128Z,99064.00
2018-09-29T02:54:02.497Z,99058.00
2018-09-29T02:58:04.816Z,99061.00
2018-09-29T03:02:07.110Z,99063.00
2018-09-29T03:06:09.345Z,99056.00
2018-09-29T03:10:11.598Z,99048.00
2018-09-29T03:14:13.887Z,99047.00
2018-09-29T03:18:16.166Z,99052.00
2018-09-29T03:22:18.433Z,99052.00
2018-09-29T03:26:20.722Z,99061.00
2018-09-29T03:30:23.008Z,99059.00
2018-09-29T03:34:25.300Z,99062.00
2018-09-29T03:38:27.596Z,99070.00
2018-09-29T03:42:29.866Z,99064.00
2018-09-29T03:46:32.137Z,99063.00
2018-09-29T03:50:34.417Z,99058.00
2018-09-29T03:54:36.645Z,99067.00
2018-09-29T03:58:38.898Z,99080.00
2018-09-29T04:02:41.187Z,99080.00
2018-09-29T04:06:43.483Z,99073.00
2018-09-29T04:10:45.795Z,99071.00
2018-09-29T04:14:48.057Z,99072.00
2018-09-29T04:18:50.276Z,99071.00
2018-09-29T04:22:52.550Z,99077.00
2018-09-29T04:26:54.827Z,99070.00
2018-09-29T04:30:57.191Z,99075.00
2018-09-29T04:34:59.441Z,99068.00
2018-09-29T04:39:01.731Z,99067.00
2018-09-29T04:43:04.044Z,99066.00
2018-09-29T04:47:06.348Z,99070.00
2018-09-29T04:51:08.660Z,99064.00
2018-09-29T04:55:11.293Z,99065.00
2018-09-29T04:59:13.682Z,99061.00
2018-09-29T05:03:16.006Z,99060.00
2018-09-29T05:07:18.301Z,99065.00
2018-09-29T05:11:20.793Z,99073.00
2018-09-29T05:15:23.070Z,99079.00
2018-09-29T05:19:25.393Z,99080.00
2018-09-29T05:23:27.724Z,99090.00
2018-09-29T05:27:29.965Z,99092.00
2018-09-29T05:31:32.257Z,99095.00
2018-09-29T05:35:34.522Z,99100.00
2018-09-29T05:39:36.870Z,99101.00
2018-09-29T05:43:39.174Z,99102.00
2018-09-29T05:47:41.469Z,99111.00
2018-09-29T05:51:43.754Z,99116.00
2018-09-29T05:55:46.031Z,99115.00
2018-09-29T05:59:48.379Z,99117.00
2018-09-29T06:03:50.705Z,99126.00
2018-09-29T06:07:52.979Z,99115.00
2018-09-29T06:11:57.591Z,99107.00
2018-09-29T06:15:59.991Z,99113.00
2018-09-29T06:20:02.293Z,99123.00
2018-09-29T06:24:06.414Z,99116.00
2018-09-29T06:28:09.510Z,99124.00
2018-09-29T06:32:14.582Z,99118.00
2018-09-29T06:36:16.886Z,99125.00
2018-09-29T06:40:20.161Z,99127.00
2018-09-29T06:44:23.601Z,99128.00
2018-09-29T06:48:29.427Z,99124.00
2018-09-29T06:52:31.814Z,99128.00
2018-09-29T06:56:34.351Z,99132.00
2018-09-29T07:00:37.246Z,99134.00
2018-09-29T07:04:41.835Z,99140.00
2018-09-29T07:08:44.129Z,99142.00
2018-09-29T07:12:46.689Z,99147.00
2018-09-29T07:16:49.131Z,99155.00
2018-09-29T07:20:51.375Z,99148.00
2018-09-29T07:24:53.673Z,99141.00
2018-09-29T07:28:57.765Z,99145.00
2018-09-29T07:33:02.280Z,99146.00
2018-09-29T07:37:04.680Z,99139.00
2018-09-29T07:41:07.086Z,99146.00
2018-09-29T07:45:09.770Z,99137.00
2018-09-29T07:49:12.110Z,99137.00
2018-09-29T07:53:14.388Z,99127.00
2018-09-29T07:57:16.648Z,99132.00
2018-09-29T08:01:18.959Z,99125.00
2018-09-29T08:05:21.244Z,99129.00
2018-09-29T08:09:23.563Z,99127.00
2018-09-29T08:13:25.855Z,99126.00
2018-09-29T08:17:28.180Z,99131.00
2018-09-29T08:21:30.621Z,99125.00
2018-09-29T08:25:32.923Z,99134.00
2018-09-29T08:29:35.235Z,99134.00
2018-09-29T08:33:37.528Z,99131.00
2018-09-29T08:37:39.847Z,99130.00
2018-09-29T08:41:42.142Z,99127.00
2018-09-29T08:45:44.484Z,99116.00
2018-09-29T08:49:46.799Z,99107.00
2018-09-29T08:54:29.795Z,99100.00
2018-09-29T08:58:32.298Z,99109.00
2018-09-29T09:02:34.598Z,99095.00
2018-09-29T09:06:36.983Z,99101.00
2018-09-29T09:10:39.302Z,99095.00
2018-09-29T09:14:41.603Z,99089.00
2018-09-29T09:18:43.890Z,99093.00
2018-09-29T09:22:46.321Z,99080.00
2018-09-29T09:26:48.598Z,99078.00
2018-09-29T09:30:50.925Z,99081.00
2018-09-29T09:34:53.214Z,99082.00
2018-09-29T09:38:55.543Z,99082.00
2018-09-29T09:43:00.033Z,99083.00
2018-09-29T09:47:04.313Z,99079.00
2018-09-29T09:51:07.003Z,99082.00
2018-09-29T09:55:10.908Z,99074.00
2018-09-29T09:59:13.180Z,99070.00
2018-09-29T10:03:23.393Z,99079.00
2018-09-29T10:07:25.703Z,99064.00
2018-09-29T10:11:27.994Z,99048.00
2018-09-29T10:15:31.363Z,99056.00
2018-09-29T10:19:33.763Z,99056.00
2018-09-29T10:23:36.258Z,99052.00
2018-09-29T10:27:38.645Z,99050.00
2018-09-29T10:31:41.041Z,99056.00
2018-09-29T10:35:43.412Z,99042.00
2018-09-29T10:39:45.701Z,99042.00
2018-09-29T10:43:48.003Z,99031.00
2018-09-29T10:47:50.916Z,98972.00
2018-09-29T10:51:53.227Z,99035.00
2018-09-29T10:55:55.709Z,99034.00
2018-09-29T10:59:58.178Z,99023.00
2018-09-29T11:04:00.570Z,99020.00
2018-09-29T11:08:03.141Z,99014.00
2018-09-29T11:12:05.552Z,99007.00
2018-09-29T11:16:07.911Z,98999.00
2018-09-29T11:20:10.398Z,98999.00
2018-09-29T11:24:12.830Z,98986.00
2018-09-29T11:28:15.255Z,98991.00
2018-09-29T11:32:17.601Z,98980.00
2018-09-29T11:36:19.945Z,98981.00
2018-09-29T11:40:22.300Z,98961.00
2018-09-29T11:44:24.606Z,98960.00
2018-09-29T11:48:26.945Z,98950.00
2018-09-29T11:52:29.267Z,98936.00
2018-09-29T11:56:31.642Z,98936.00
2018-09-29T12:00:33.967Z,98929.00
2018-09-29T12:04:36.286Z,98915.00
2018-09-29T12:08:38.620Z,98919.00
2018-09-29T12:12:40.952Z,98910.00
2018-09-29T12:16:43.238Z,98910.00
2018-09-29T12:20:45.561Z,98901.00
2018-09-29T12:24:47.908Z,98888.00
2018-09-29T12:28:50.340Z,98888.00
2018-09-29T12:32:52.621Z,98873.00
2018-09-29T12:36:55.014Z,98873.00
2018-09-29T12:40:57.256Z,98869.00
2018-09-29T12:45:00.056Z,98874.00
2018-09-29T12:49:02.317Z,98865.00
2018-09-29T12:53:04.785Z,98865.00
2018-09-29T12:57:07.118Z,98858.00
2018-09-29T13:01:09.392Z,98846.00
2018-09-29T13:05:11.765Z,98845.00
2018-09-29T13:09:14.028Z,98835.00
2018-09-29T13:13:17.091Z,98833.00
2018-09-29T13:17:19.479Z,98828.00
2018-09-29T13:21:21.846Z,98830.00
2018-09-29T13:25:24.232Z,98816.00
2018-09-29T13:29:26.829Z,98812.00
2018-09-29T13:33:29.456Z,98809.00
2018-09-29T13:37:31.902Z,98808.00
2018-09-29T13:41:34.298Z,98801.00
2018-09-29T13:45:36.932Z,98808.00
2018-09-29T13:49:39.307Z,98773.00
2018-09-29T13:53:41.960Z,98782.00
2018-09-29T13:57:44.191Z,98794.00
2018-09-29T14:01:47.748Z,98782.00
2018-09-29T14:05:50.307Z,98772.00
2018-09-29T14:09:52.672Z,98771.00
2018-09-29T14:13:54.992Z,98768.00
2018-09-29T14:17:57.331Z,98754.00
2018-09-29T14:21:59.731Z,98751.00
2018-09-29T14:26:02.116Z,98753.00
2018-09-29T14:30:04.724Z,98748.00
2018-09-29T14:34:07.071Z,98738.00
2018-09-29T14:38:09.710Z,98740.00
2018-09-29T14:42:12.308Z,98731.00
2018-09-29T14:46:14.646Z,98727.00
2018-09-29T14:50:17.072Z,98734.00
2018-09-29T14:54:19.405Z,98727.00
2018-09-29T14:58:21.764Z,98726.00
2018-09-29T15:02:24.136Z,98723.00
2018-09-29T15:06:29.437Z,98724.00
2018-09-29T15:10:41.726Z,98715.00
2018-09-29T15:14:53.466Z,98705.00
2018-09-29T15:18:56.205Z,98703.00
2018-09-29T15:22:58.675Z,98694.00
2018-09-29T15:27:01.126Z,98688.00
2018-09-29T15:31:03.499Z,98676.00
2018-09-29T15:35:05.932Z,98674.00
2018-09-29T15:39:12.162Z,98663.00
2018-09-29T15:43:14.530Z,98669.00
2018-09-29T15:47:16.874Z,98661.00
2018-09-29T15:51:21.642Z,98664.00
2018-09-29T15:55:35.614Z,98662.00
2018-09-29T15:59:47.444Z,98665.00
2018-09-29T16:03:51.940Z,98671.00
2018-09-29T16:07:57.151Z,98667.00
2018-09-29T16:11:59.564Z,98663.00
2018-09-29T16:16:01.940Z,98666.00
2018-09-29T16:20:06.208Z,98671.00
2018-09-29T16:24:08.655Z,98674.00
2018-09-29T16:28:11.039Z,98656.00
2018-09-29T16:32:14.935Z,98658.00
2018-09-29T16:36:17.264Z,98653.00
2018-09-29T16:40:19.571Z,98656.00
2018-09-29T16:44:21.995Z,98645.00
2018-09-29T16:48:24.344Z,98645.00
2018-09-29T16:52:26.700Z,98638.00
2018-09-29T16:56:29.077Z,98644.00
2018-09-29T17:00:31.532Z,98644.00
2018-09-29T17:04:33.921Z,98641.00
2018-09-29T17:08:36.135Z,98636.00
2018-09-29T17:12:38.855Z,98631.00
2018-09-29T17:16:41.144Z,98634.00
2018-09-29T17:20:45.986Z,98645.00
2018-09-29T17:24:48.807Z,98640.00
2018-09-29T17:28:51.444Z,98633.00
2018-09-29T17:32:53.940Z,98633.00
2018-09-29T17:36:56.296Z,98633.00
2018-09-29T17:40:58.848Z,98637.00
2018-09-29T17:45:01.226Z,98638.00
2018-09-29T17:49:04.420Z,98621.00
2018-09-29T17:53:06.869Z,98628.00
2018-09-29T17:57:09.272Z,98634.00
2018-09-29T18:01:11.554Z,98626.00
2018-09-29T18:05:13.981Z,98629.00
2018-09-29T18:09:16.346Z,98609.00
2018-09-29T18:13:18.722Z,98626.00
2018-09-29T18:17:21.046Z,98626.00
2018-09-29T18:21:23.439Z,98631.00
2018-09-29T18:25:25.736Z,98631.00
2018-09-29T18:29:28.109Z,98635.00
2018-09-29T18:33:30.513Z,98627.00
2018-09-29T18:37:32.875Z,98636.00
2018-09-29T18:41:36.220Z,98624.00
2018-09-29T18:45:38.655Z,98627.00
2018-09-29T18:49:41.140Z,98626.00
2018-09-29T18:53:44.538Z,98627.00
2018-09-29T18:57:47.747Z,98624.00
2018-09-29T19:01:50.188Z,98624.00
2018-09-29T19:05:53.201Z,98624.00
2018-09-29T19:09:57.114Z,98627.00
2018-09-29T19:13:59.512Z,98630.00
2018-09-29T19:18:01.988Z,98630.00
2018-09-29T19:22:06.117Z,98625.00
2018-09-29T19:26:08.759Z,98622.00
2018-09-29T19:30:14.113Z,98624.00
2018-09-29T19:34:19.829Z,98626.00
2018-09-29T19:38:23.864Z,98635.00
2018-09-29T19:42:29.036Z,98630.00
2018-09-29T19:46:31.500Z,98619.00
2018-09-29T19:50:36.976Z,98619.00
2018-09-29T19:54:40.366Z,98619.00
2018-09-29T19:58:42.834Z,98615.00
2018-09-29T20:02:45.740Z,98622.00
2018-09-29T20:06:48.135Z,98620.00
2018-09-29T20:10:50.480Z,98626.00
2018-09-29T20:14:56.225Z,98624.00
2018-09-29T20:18:58.716Z,98613.00
2018-09-29T20:23:01.090Z,98611.00
2018-09-29T20:27:03.434Z,98610.00
2018-09-29T20:31:05.921Z,98606.00
2018-09-29T20:35:08.429Z,98604.00
2018-09-29T20:39:12.463Z,98592.00
2018-09-29T20:43:15.431Z,98592.00
2018-09-29T20:47:18.624Z,98588.00
2018-09-29T20:51:20.937Z,98570.00
2018-09-29T20:55:23.326Z,98585.00
2018-09-29T20:59:26.161Z,98580.00
2018-09-29T21:03:28.662Z,98583.00
2018-09-29T21:07:31.468Z,98560.00
2018-09-29T21:11:34.470Z,98568.00
2018-09-29T21:15:36.877Z,98558.00
2018-09-29T21:19:39.313Z,98553.00
2018-09-29T21:23:41.704Z,98560.00
2018-09-29T21:27:44.018Z,98546.00
2018-09-29T21:31:46.479Z,98541.00
2018-09-29T21:35:48.833Z,98542.00
2018-09-29T21:39:51.138Z,98542.00
2018-09-29T21:43:53.458Z,98547.00
2018-09-29T21:47:55.834Z,98531.00
2018-09-29T21:51:58.215Z,98516.00
2018-09-29T21:56:00.582Z,98524.00
2018-09-29T22:00:05.050Z,98513.00
2018-09-29T22:04:07.394Z,98514.00
2018-09-29T22:08:13.534Z,98509.00
2018-09-29T22:12:17.689Z,98498.00
2018-09-29T22:16:20.104Z,98489.00
2018-09-29T22:20:22.448Z,98490.00
2018-09-29T22:24:24.743Z,98491.00
2018-09-29T22:28:27.101Z,98489.00
2018-09-29T22:32:29.457Z,98493.00
2018-09-29T22:36:31.853Z,98489.00
2018-09-29T22:40:34.227Z,98485.00
2018-09-29T22:44:36.572Z,98473.00
2018-09-29T22:48:38.863Z,98458.00
2018-09-29T22:52:41.152Z,98451.00
2018-09-29T22:56:43.482Z,98460.00
2018-09-29T23:00:45.816Z,98463.00
2018-09-29T23:04:48.100Z,98463.00
2018-09-29T23:08:50.460Z,98452.00
2018-09-29T23:12:52.813Z,98443.00
2018-09-29T23:16:55.133Z,98451.00
2018-09-29T23:20:57.448Z,98446.00
2018-09-29T23:24:59.714Z,98445.00
2018-09-29T23:29:02.058Z,98444.00
2018-09-29T23:33:04.561Z,98428.00
2018-09-29T23:37:06.885Z,98423.00
2018-09-29T23:41:09.129Z,98422.00
2018-09-29T23:45:11.462Z,98426.00
2018-09-29T23:49:13.968Z,98426.00
2018-09-29T23:53:16.257Z,98409.00
2018-09-29T23:57:18.588Z,98414.00
